Time;durP1;ratioP1;P1;durP2;ratioP2;P2;SDS_P1;SDS_P2;PMS_P1;PMS_P2;Temp;Humidity;BMP_temperature;BMP_pressure;BME280_temperature;BME280_humidity;BME280_pressure;Samples;Min_cycle;Max_cycle;Signal;HPM_P1;HPM_P2
2022/10/30 00:01:53;;;;;;;10.30;4.55;;;;;;;;;;5073922;28;20493;-80
2022/10/30 00:04:18;;;;;;;9.48;4.50;;;;;;;;;;5074793;28;20131;-80
2022/10/30 00:06:43;;;;;;;8.55;4.78;;;;;;;;;;5074040;28;20375;-79
2022/10/30 00:09:09;;;;;;;7.47;4.55;;;;;;;;;;5056697;28;20119;-80
2022/10/30 00:11:34;;;;;;;9.18;4.25;;;;;;;;;;5057304;28;20040;-80
2022/10/30 00:14:00;;;;;;;8.05;4.53;;;;;;;;;;5039962;28;20078;-80
2022/10/30 00:16:25;;;;;;;7.88;4.68;;;;;;;;;;5056557;28;20029;-80
2022/10/30 00:18:51;;;;;;;7.55;4.32;;;;;;;;;;5039735;28;20032;-80
2022/10/30 00:21:17;;;;;;;8.00;4.35;;;;;;;;;;5073304;28;20035;-80
2022/10/30 00:23:52;;;;;;;10.43;4.60;;;;;;;;;;5056577;28;20029;-79
2022/10/30 00:26:19;;;;;;;6.28;4.57;;;;;;;;;;5073491;28;20031;-80
2022/10/30 00:28:49;;;;;;;7.88;4.20;;;;;;;;;;5056333;28;20017;-80
2022/10/30 00:31:15;;;;;;;7.25;4.20;;;;;;;;;;5073332;28;20027;-81
2022/10/30 00:33:40;;;;;;;8.18;4.93;;;;;;;;;;5073036;28;20024;-80
2022/10/30 00:36:06;;;;;;;8.00;4.28;;;;;;;;;;5072905;28;20041;-80
2022/10/30 00:38:31;;;;;;;6.78;4.45;;;;;;;;;;5056738;28;20036;-80
2022/10/30 00:40:57;;;;;;;10.48;4.95;;;;;;;;;;5073106;28;20501;-80
2022/10/30 00:43:36;;;;;;;8.15;4.10;;;;;;;;;;5072767;28;20060;-80
2022/10/30 00:46:15;;;;;;;8.60;4.60;;;;;;;;;;5056021;28;20034;-80
2022/10/30 00:48:45;;;;;;;8.95;4.60;;;;;;;;;;5055896;28;20509;-81
2022/10/30 00:51:11;;;;;;;9.15;4.30;;;;;;;;;;5056087;28;20471;-80
2022/10/30 00:53:37;;;;;;;9.48;4.70;;;;;;;;;;5072947;28;20485;-81
2022/10/30 00:56:05;;;;;;;8.90;4.40;;;;;;;;;;5055875;28;20064;-80
2022/10/30 00:58:42;;;;;;;6.63;4.20;;;;;;;;;;5056058;28;20048;-80
2022/10/30 01:01:11;;;;;;;6.97;4.45;;;;;;;;;;5056190;28;20027;-80
2022/10/30 01:03:38;;;;;;;8.55;4.22;;;;;;;;;;5073942;28;20052;-80
2022/10/30 01:06:07;;;;;;;8.73;4.18;;;;;;;;;;5055586;28;20032;-80
2022/10/30 01:08:32;;;;;;;8.43;4.13;;;;;;;;;;5055883;28;20029;-80
2022/10/30 01:10:59;;;;;;;7.35;4.47;;;;;;;;;;5056135;28;20035;-79
2022/10/30 01:13:25;;;;;;;8.73;4.30;;;;;;;;;;5055981;28;20463;-80
2022/10/30 01:15:56;;;;;;;6.00;4.00;;;;;;;;;;5055440;28;20459;-80
2022/10/30 01:18:34;;;;;;;6.32;4.07;;;;;;;;;;5072119;28;20032;-79
2022/10/30 01:21:15;;;;;;;5.95;4.50;;;;;;;;;;5072375;28;20478;-80
2022/10/30 01:23:59;;;;;;;8.13;4.05;;;;;;;;;;5055301;28;20036;-79
2022/10/30 01:26:27;;;;;;;;;;;;;;;;;;5072533;28;20047;-78
2022/10/30 01:29:30;;;;;;;6.95;4.00;;;;;;;;;;5055328;28;19909;-79
2022/10/30 01:32:28;;;;;;;9.00;4.30;;;;;;;;;;5072693;28;20029;-80
2022/10/30 01:35:20;;;;;;;9.50;4.38;;;;;;;;;;5071955;28;20035;-80
2022/10/30 01:37:56;;;;;;;7.50;3.90;;;;;;;;;;5072045;28;20421;-80
2022/10/30 01:40:22;;;;;;;8.63;4.55;;;;;;;;;;5055198;28;20074;-80
2022/10/30 01:42:51;;;;;;;12.48;4.75;;;;;;;;;;5054859;28;20475;-80
2022/10/30 01:45:19;;;;;;;7.22;3.92;;;;;;;;;;5055051;28;20067;-80
2022/10/30 01:48:03;;;;;;;6.03;3.95;;;;;;;;;;5073328;28;20028;-79
2022/10/30 01:50:46;;;;;;;;;;;;;;;;;;5073714;28;20025;-77
2022/10/30 01:53:17;;;;;;;10.15;4.72;;;;;;;;;;5073493;28;19908;-79
2022/10/30 01:55:55;;;;;;;9.05;3.97;;;;;;;;;;5071598;28;20113;-79
2022/10/30 01:58:46;;;;;;;7.80;4.22;;;;;;;;;;5071675;28;20035;-79
2022/10/30 02:01:11;;;;;;;11.27;4.60;;;;;;;;;;5060909;28;20029;-80
2022/10/30 02:03:37;;;;;;;13.55;4.47;;;;;;;;;;5071456;28;20028;-79
2022/10/30 02:06:03;;;;;;;9.20;4.25;;;;;;;;;;5071929;28;20064;-79
2022/10/30 02:08:28;;;;;;;7.85;4.05;;;;;;;;;;5072018;28;20515;-79
2022/10/30 02:10:54;;;;;;;7.65;4.30;;;;;;;;;;5055209;28;20475;-79
2022/10/30 02:13:20;;;;;;;7.40;4.32;;;;;;;;;;5054944;28;20033;-79
2022/10/30 02:15:46;;;;;;;7.68;3.90;;;;;;;;;;5071913;28;20102;-79
2022/10/30 02:18:11;;;;;;;12.40;4.50;;;;;;;;;;5071582;28;20433;-80
2022/10/30 02:20:37;;;;;;;7.50;3.83;;;;;;;;;;5071441;28;20028;-79
2022/10/30 02:23:03;;;;;;;7.88;4.28;;;;;;;;;;5071788;28;20021;-79
2022/10/30 02:25:28;;;;;;;6.97;4.03;;;;;;;;;;5071503;28;20036;-79
2022/10/30 02:27:53;;;;;;;9.35;4.32;;;;;;;;;;5054664;28;20085;-79
2022/10/30 02:30:19;;;;;;;8.75;4.32;;;;;;;;;;5071749;28;20025;-80
2022/10/30 02:32:44;;;;;;;11.05;4.22;;;;;;;;;;5071482;28;20039;-80
2022/10/30 02:35:09;;;;;;;9.88;4.05;;;;;;;;;;5071322;28;20028;-79
2022/10/30 02:37:35;;;;;;;10.05;3.90;;;;;;;;;;5054492;28;20028;-80
2022/10/30 02:40:04;;;;;;;9.25;4.57;;;;;;;;;;5054570;28;20479;-80
2022/10/30 02:42:29;;;;;;;11.77;4.10;;;;;;;;;;5040319;28;20071;-80
2022/10/30 02:44:55;;;;;;;8.25;4.45;;;;;;;;;;5041346;28;20080;-80
2022/10/30 02:47:20;;;;;;;7.47;4.22;;;;;;;;;;5074863;28;20437;-79
2022/10/30 02:49:45;;;;;;;7.15;4.30;;;;;;;;;;5075347;28;20025;-80
2022/10/30 02:52:11;;;;;;;11.32;4.35;;;;;;;;;;5058081;28;20475;-80
2022/10/30 02:54:36;;;;;;;9.10;4.75;;;;;;;;;;5058508;28;20035;-81
2022/10/30 02:57:02;;;;;;;7.97;4.50;;;;;;;;;;5075191;28;20039;-81
2022/10/30 02:59:28;;;;;;;5.97;4.20;;;;;;;;;;5075180;28;20031;-81
2022/10/30 03:01:53;;;;;;;8.68;4.10;;;;;;;;;;5058176;28;20117;-81
2022/10/30 03:04:19;;;;;;;5.93;3.97;;;;;;;;;;5074974;28;20415;-80
2022/10/30 03:06:44;;;;;;;8.70;4.40;;;;;;;;;;5041373;28;20027;-80
2022/10/30 03:09:09;;;;;;;7.88;4.85;;;;;;;;;;5074588;28;20024;-81
2022/10/30 03:11:35;;;;;;;6.47;4.07;;;;;;;;;;5074527;28;20040;-80
2022/10/30 03:14:00;;;;;;;9.23;4.43;;;;;;;;;;5074523;28;20032;-80
2022/10/30 03:16:30;;;;;;;10.52;4.20;;;;;;;;;;5058343;28;20451;-80
2022/10/30 03:18:57;;;;;;;5.78;3.92;;;;;;;;;;5075678;28;20024;-80
2022/10/30 03:21:24;;;;;;;5.75;4.03;;;;;;;;;;5074432;28;20136;-81
2022/10/30 03:23:50;;;;;;;7.95;4.40;;;;;;;;;;5074379;28;20033;-80
2022/10/30 03:26:16;;;;;;;6.35;4.00;;;;;;;;;;5074635;28;20032;-80
2022/10/30 03:28:41;;;;;;;8.07;4.15;;;;;;;;;;5075871;28;20560;-80
2022/10/30 03:31:09;;;;;;;6.18;4.63;;;;;;;;;;5058289;28;20039;-80
2022/10/30 03:33:35;;;;;;;7.25;4.50;;;;;;;;;;5074131;28;20037;-80
2022/10/30 03:36:02;;;;;;;6.45;4.28;;;;;;;;;;5057398;28;20020;-80
2022/10/30 03:38:27;;;;;;;8.35;4.65;;;;;;;;;;5057365;28;20070;-79
2022/10/30 03:40:53;;;;;;;6.50;3.78;;;;;;;;;;5057405;28;20025;-80
2022/10/30 03:43:19;;;;;;;8.05;4.25;;;;;;;;;;5074000;28;20053;-80
2022/10/30 03:45:47;;;;;;;6.97;4.00;;;;;;;;;;5074123;28;20032;-80
2022/10/30 03:48:12;;;;;;;8.02;4.40;;;;;;;;;;5057323;28;20032;-80
2022/10/30 03:50:38;;;;;;;8.48;4.95;;;;;;;;;;5040534;28;20036;-80
2022/10/30 03:53:03;;;;;;;8.23;4.85;;;;;;;;;;5056535;28;20039;-79
2022/10/30 03:55:28;;;;;;;8.90;4.20;;;;;;;;;;5057448;28;20050;-80
2022/10/30 03:57:54;;;;;;;6.93;4.18;;;;;;;;;;5056949;28;20390;-80
2022/10/30 04:00:19;;;;;;;8.43;4.20;;;;;;;;;;5073753;28;20112;-80
2022/10/30 04:02:46;;;;;;;8.10;4.00;;;;;;;;;;5056930;28;20510;-80
2022/10/30 04:05:16;;;;;;;7.07;4.88;;;;;;;;;;5073600;28;20032;-80
2022/10/30 04:07:42;;;;;;;8.35;4.35;;;;;;;;;;5073910;28;20029;-80
2022/10/30 04:10:08;;;;;;;7.05;4.63;;;;;;;;;;5073464;28;20035;-80
2022/10/30 04:12:33;;;;;;;7.20;4.13;;;;;;;;;;5040501;28;20036;-79
2022/10/30 04:14:59;;;;;;;8.13;3.95;;;;;;;;;;5074908;28;20031;-80
2022/10/30 04:17:24;;;;;;;8.82;4.70;;;;;;;;;;5056900;28;20028;-80
2022/10/30 04:19:50;;;;;;;8.10;4.43;;;;;;;;;;5073654;28;20391;-80
2022/10/30 04:22:15;;;;;;;9.25;4.63;;;;;;;;;;5056553;28;20040;-80
2022/10/30 04:24:40;;;;;;;8.10;4.47;;;;;;;;;;5073705;28;20024;-80
2022/10/30 04:27:06;;;;;;;10.48;4.50;;;;;;;;;;5056473;28;20032;-79
2022/10/30 04:29:31;;;;;;;10.23;4.65;;;;;;;;;;5074744;28;20028;-80
2022/10/30 04:31:57;;;;;;;8.13;4.65;;;;;;;;;;5039757;28;20418;-80
2022/10/30 04:34:22;;;;;;;9.90;4.20;;;;;;;;;;5073057;28;20399;-80
2022/10/30 04:36:47;;;;;;;8.07;4.63;;;;;;;;;;5072920;28;20113;-80
2022/10/30 04:39:13;;;;;;;7.97;4.45;;;;;;;;;;5056155;28;20056;-81
2022/10/30 04:41:38;;;;;;;8.30;4.45;;;;;;;;;;5072986;28;20386;-81
2022/10/30 04:44:04;;;;;;;7.93;4.10;;;;;;;;;;5072797;28;20059;-80
2022/10/30 04:46:30;;;;;;;11.68;4.65;;;;;;;;;;5073045;28;20086;-80
2022/10/30 04:48:56;;;;;;;5.35;4.22;;;;;;;;;;5072959;28;20536;-80
2022/10/30 04:51:22;;;;;;;8.30;4.35;;;;;;;;;;5039355;28;20029;-80
2022/10/30 04:53:47;;;;;;;8.98;4.68;;;;;;;;;;5072736;28;20020;-80
2022/10/30 04:56:13;;;;;;;6.03;4.07;;;;;;;;;;5072636;28;20491;-79
2022/10/30 04:58:39;;;;;;;10.85;4.30;;;;;;;;;;5072853;28;20029;-80
2022/10/30 05:01:06;;;;;;;6.68;4.28;;;;;;;;;;5055639;28;20029;-80
2022/10/30 05:03:31;;;;;;;7.38;4.10;;;;;;;;;;5056001;28;20048;-79
2022/10/30 05:05:59;;;;;;;9.45;4.68;;;;;;;;;;5055410;28;20471;-80
2022/10/30 05:08:25;;;;;;;8.98;4.15;;;;;;;;;;5055921;28;20024;-80
2022/10/30 05:10:51;;;;;;;8.63;4.50;;;;;;;;;;5073801;28;20031;-80
2022/10/30 05:13:16;;;;;;;10.90;4.93;;;;;;;;;;5073321;28;20116;-80
2022/10/30 05:15:42;;;;;;;7.45;4.05;;;;;;;;;;5073073;28;20109;-80
2022/10/30 05:18:07;;;;;;;8.23;4.30;;;;;;;;;;5055834;28;20029;-79
2022/10/30 05:20:32;;;;;;;6.68;4.22;;;;;;;;;;5056132;28;20501;-80
2022/10/30 05:22:58;;;;;;;9.07;4.47;;;;;;;;;;5055672;28;20050;-79
2022/10/30 05:25:24;;;;;;;9.32;4.60;;;;;;;;;;5073912;28;20107;-80
2022/10/30 05:27:51;;;;;;;6.90;4.15;;;;;;;;;;5055723;28;20020;-80
2022/10/30 05:30:16;;;;;;;10.40;4.20;;;;;;;;;;5056457;28;20031;-79
2022/10/30 05:32:41;;;;;;;7.00;4.07;;;;;;;;;;5074017;28;20028;-79
2022/10/30 05:35:07;;;;;;;6.72;4.10;;;;;;;;;;5072716;28;20414;-80
2022/10/30 05:37:32;;;;;;;7.18;4.38;;;;;;;;;;5073731;28;20035;-79
2022/10/30 05:39:58;;;;;;;7.75;4.53;;;;;;;;;;5074878;28;20370;-79
2022/10/30 05:42:23;;;;;;;7.75;4.57;;;;;;;;;;5057098;28;20097;-79
2022/10/30 05:44:49;;;;;;;10.32;4.55;;;;;;;;;;5039912;28;20068;-79
2022/10/30 05:47:14;;;;;;;9.90;4.35;;;;;;;;;;5073905;28;20119;-79
2022/10/30 05:49:39;;;;;;;8.50;4.80;;;;;;;;;;5073503;28;20086;-79
2022/10/30 05:52:05;;;;;;;8.10;4.32;;;;;;;;;;5072402;28;20043;-78
2022/10/30 05:54:31;;;;;;;8.73;4.97;;;;;;;;;;5056046;28;20099;-79
2022/10/30 05:56:57;;;;;;;9.23;4.93;;;;;;;;;;5072136;28;20032;-79
2022/10/30 05:59:22;;;;;;;7.78;4.20;;;;;;;;;;5072331;28;20029;-79
2022/10/30 06:01:48;;;;;;;7.85;4.30;;;;;;;;;;5073715;28;20029;-79
2022/10/30 06:04:13;;;;;;;8.23;4.72;;;;;;;;;;5055653;28;20463;-79
2022/10/30 06:06:39;;;;;;;6.82;4.28;;;;;;;;;;5072783;28;20028;-79
2022/10/30 06:09:04;;;;;;;8.73;4.90;;;;;;;;;;5072302;28;20183;-82
2022/10/30 06:11:29;;;;;;;7.75;4.50;;;;;;;;;;5055586;28;20056;-79
2022/10/30 06:13:55;;;;;;;8.88;4.70;;;;;;;;;;5072551;28;20016;-80
2022/10/30 06:16:20;;;;;;;7.32;4.57;;;;;;;;;;5074716;28;20037;-80
2022/10/30 06:18:45;;;;;;;7.55;4.68;;;;;;;;;;5076305;28;20024;-80
2022/10/30 06:21:11;;;;;;;7.95;4.50;;;;;;;;;;5076023;28;20032;-80
2022/10/30 06:23:36;;;;;;;7.80;4.55;;;;;;;;;;5075801;28;20032;-81
2022/10/30 06:26:02;;;;;;;9.35;4.32;;;;;;;;;;5059349;28;20029;-81
2022/10/30 06:28:27;;;;;;;8.40;4.63;;;;;;;;;;5076922;28;20037;-80
2022/10/30 06:30:53;;;;;;;10.13;4.53;;;;;;;;;;5077870;28;20032;-81
2022/10/30 06:33:19;;;;;;;7.72;4.10;;;;;;;;;;5076081;28;20013;-82
2022/10/30 06:35:47;;;;;;;5.97;4.15;;;;;;;;;;5077475;28;20020;-80
2022/10/30 06:38:13;;;;;;;5.72;4.30;;;;;;;;;;5076257;28;20020;-80
2022/10/30 06:40:39;;;;;;;7.07;4.50;;;;;;;;;;5078519;28;20026;-80
2022/10/30 06:43:04;;;;;;;7.55;4.82;;;;;;;;;;5078815;28;20119;-80
2022/10/30 06:45:29;;;;;;;7.18;4.85;;;;;;;;;;5076093;28;20395;-81
2022/10/30 06:47:55;;;;;;;9.32;4.07;;;;;;;;;;5077312;28;20075;-79
2022/10/30 06:50:21;;;;;;;6.53;4.65;;;;;;;;;;5077240;28;20085;-80
2022/10/30 06:52:47;;;;;;;8.27;4.80;;;;;;;;;;5042309;28;20363;-79
2022/10/30 06:55:13;;;;;;;11.40;4.90;;;;;;;;;;5076928;28;20035;-80
2022/10/30 06:57:38;;;;;;;7.88;4.80;;;;;;;;;;5076834;28;20025;-80
2022/10/30 07:00:05;;;;;;;8.07;4.80;;;;;;;;;;5058837;28;20035;-81
2022/10/30 07:02:31;;;;;;;7.78;4.50;;;;;;;;;;5058814;28;20066;-81
2022/10/30 07:04:56;;;;;;;12.93;4.63;;;;;;;;;;5058662;28;20056;-80
2022/10/30 07:07:21;;;;;;;11.30;4.38;;;;;;;;;;5077459;28;20040;-80
2022/10/30 07:09:47;;;;;;;10.38;4.78;;;;;;;;;;5076087;28;20031;-80
2022/10/30 07:12:12;;;;;;;7.47;4.43;;;;;;;;;;5076149;28;20037;-80
2022/10/30 07:14:38;;;;;;;9.00;4.50;;;;;;;;;;5077916;28;20031;-81
2022/10/30 07:17:03;;;;;;;7.95;4.57;;;;;;;;;;5059898;28;20032;-82
2022/10/30 07:19:29;;;;;;;8.93;4.80;;;;;;;;;;5043130;28;20035;-80
2022/10/30 07:21:54;;;;;;;13.05;4.40;;;;;;;;;;5075370;28;20044;-81
2022/10/30 07:24:19;;;;;;;12.23;4.88;;;;;;;;;;5058097;28;20032;-80
2022/10/30 07:26:45;;;;;;;10.45;4.57;;;;;;;;;;5076909;28;20108;-80
2022/10/30 07:29:10;;;;;;;9.57;5.10;;;;;;;;;;5057773;28;20387;-80
2022/10/30 07:31:35;;;;;;;18.60;5.28;;;;;;;;;;5059077;28;20040;-81
2022/10/30 07:34:01;;;;;;;11.95;4.70;;;;;;;;;;5074849;28;20031;-80
2022/10/30 07:36:26;;;;;;;10.18;4.90;;;;;;;;;;5058160;28;20372;-80
2022/10/30 07:38:52;;;;;;;12.98;4.70;;;;;;;;;;5058114;28;20028;-82
2022/10/30 07:41:18;;;;;;;9.38;5.30;;;;;;;;;;5058487;28;20040;-80
2022/10/30 07:43:44;;;;;;;8.43;4.57;;;;;;;;;;5057747;28;20056;-81
2022/10/30 07:46:09;;;;;;;19.00;5.00;;;;;;;;;;5076966;28;20024;-79
2022/10/30 07:48:35;;;;;;;11.00;5.40;;;;;;;;;;5058533;28;20443;-80
2022/10/30 07:51:00;;;;;;;13.18;5.05;;;;;;;;;;5075617;28;20561;-81
2022/10/30 07:53:25;;;;;;;7.65;4.53;;;;;;;;;;5076359;28;20496;-81
2022/10/30 07:55:51;;;;;;;11.23;5.03;;;;;;;;;;5076432;28;20040;-81
2022/10/30 07:58:16;;;;;;;8.85;4.75;;;;;;;;;;5058644;28;20028;-80
2022/10/30 08:00:42;;;;;;;11.02;4.78;;;;;;;;;;5076048;28;20078;-81
2022/10/30 08:03:08;;;;;;;7.50;4.53;;;;;;;;;;5041119;28;20028;-80
2022/10/30 08:05:33;;;;;;;10.25;4.85;;;;;;;;;;5075304;28;20031;-80
2022/10/30 08:07:59;;;;;;;13.20;5.03;;;;;;;;;;5074822;28;20025;-80
2022/10/30 08:10:25;;;;;;;12.13;4.60;;;;;;;;;;5057241;28;20422;-80
2022/10/30 08:12:50;;;;;;;9.52;4.40;;;;;;;;;;5076242;28;20062;-77
2022/10/30 08:15:16;;;;;;;10.70;4.95;;;;;;;;;;5058909;28;20031;-80
2022/10/30 08:17:48;;;;;;;13.85;4.40;;;;;;;;;;5076036;28;20028;-79
2022/10/30 08:20:16;;;;;;;8.85;4.65;;;;;;;;;;5075761;28;20025;-79
2022/10/30 08:22:55;;;;;;;10.45;4.35;;;;;;;;;;5075091;28;20028;-78
2022/10/30 08:25:23;;;;;;;10.25;4.95;;;;;;;;;;5074542;28;20025;-79
2022/10/30 08:28:03;;;;;;;9.55;4.72;;;;;;;;;;5075841;28;20040;-78
2022/10/30 08:30:33;;;;;;;13.40;4.93;;;;;;;;;;5074282;28;20390;-79
2022/10/30 08:33:03;;;;;;;13.48;5.75;;;;;;;;;;5074623;28;20024;-78
2022/10/30 08:35:29;;;;;;;16.73;5.93;;;;;;;;;;5076477;28;20052;-80
2022/10/30 08:37:58;;;;;;;16.90;6.32;;;;;;;;;;5073972;28;20560;-78
2022/10/30 08:40:25;;;;;;;31.35;10.07;;;;;;;;;;5075019;28;20483;-78
2022/10/30 08:42:54;;;;;;;31.58;9.02;;;;;;;;;;5075233;28;20037;-78
2022/10/30 08:45:20;;;;;;;21.60;8.27;;;;;;;;;;5074992;28;20383;-78
2022/10/30 08:47:46;;;;;;;29.80;8.68;;;;;;;;;;5074672;28;20032;-78
2022/10/30 08:50:12;;;;;;;23.02;6.90;;;;;;;;;;5073895;28;20028;-79
2022/10/30 08:52:37;;;;;;;24.35;7.18;;;;;;;;;;5075016;28;20059;-78
2022/10/30 08:55:03;;;;;;;19.83;6.65;;;;;;;;;;5057070;28;20035;-78
2022/10/30 08:57:28;;;;;;;34.67;8.20;;;;;;;;;;5074015;28;20469;-78
2022/10/30 08:59:53;;;;;;;19.27;7.68;;;;;;;;;;5040032;28;20055;-78
2022/10/30 09:02:19;;;;;;;19.17;7.47;;;;;;;;;;5073346;28;20395;-78
2022/10/30 09:04:44;;;;;;;17.08;6.30;;;;;;;;;;5073066;28;20032;-78
2022/10/30 09:07:09;;;;;;;17.33;6.82;;;;;;;;;;5073243;28;20044;-78
2022/10/30 09:09:35;;;;;;;26.08;6.80;;;;;;;;;;5056178;28;20390;-78
2022/10/30 09:12:00;;;;;;;17.80;6.65;;;;;;;;;;5056073;28;20033;-79
2022/10/30 09:14:26;;;;;;;20.10;6.45;;;;;;;;;;5056499;28;20474;-78
2022/10/30 09:16:53;;;;;;;15.43;6.47;;;;;;;;;;5075016;28;20029;-79
2022/10/30 09:19:18;;;;;;;13.77;5.88;;;;;;;;;;5075231;28;20041;-79
2022/10/30 09:21:44;;;;;;;21.35;6.15;;;;;;;;;;5056427;28;20036;-79
2022/10/30 09:24:09;;;;;;;13.57;5.97;;;;;;;;;;5073011;28;20081;-78
2022/10/30 09:26:34;;;;;;;16.80;6.30;;;;;;;;;;5073931;28;20036;-79
2022/10/30 09:29:00;;;;;;;18.48;6.30;;;;;;;;;;5074130;28;20056;-79
2022/10/30 09:31:25;;;;;;;18.48;6.40;;;;;;;;;;5074612;28;20115;-78
2022/10/30 09:33:50;;;;;;;18.60;6.30;;;;;;;;;;5072909;28;20067;-79
2022/10/30 09:36:16;;;;;;;17.58;5.93;;;;;;;;;;5073499;28;20032;-78
2022/10/30 09:38:42;;;;;;;17.50;6.25;;;;;;;;;;5073627;28;20097;-79
2022/10/30 09:41:19;;;;;;;15.35;6.38;;;;;;;;;;5073020;28;20024;-79
2022/10/30 09:44:03;;;;;;;14.77;5.88;;;;;;;;;;5055801;28;20076;-78
2022/10/30 09:46:49;;;;;;;13.20;5.65;;;;;;;;;;5072519;28;20067;-79
2022/10/30 09:49:30;;;;;;;14.93;6.05;;;;;;;;;;5075617;28;20056;-78
2022/10/30 09:52:01;;;;;;;12.20;5.13;;;;;;;;;;5072742;28;20388;-78
2022/10/30 09:54:38;;;;;;;13.35;5.63;;;;;;;;;;5073751;28;20115;-78
2022/10/30 09:57:21;;;;;;;14.82;5.85;;;;;;;;;;5072998;28;20020;-78
2022/10/30 10:00:00;;;;;;;11.57;5.72;;;;;;;;;;5074992;28;20385;-78
2022/10/30 10:02:52;;;;;;;16.05;6.00;;;;;;;;;;5072840;28;20028;-79
2022/10/30 10:05:25;;;;;;;14.88;5.65;;;;;;;;;;5074231;28;20051;-79
2022/10/30 10:07:59;;;;;;;10.35;6.00;;;;;;;;;;5073038;28;20029;-78
2022/10/30 10:10:43;;;;;;;19.40;6.93;;;;;;;;;;5072910;28;20108;-78
2022/10/30 10:13:27;;;;;;;17.00;6.40;;;;;;;;;;5072927;28;20036;-78
2022/10/30 10:15:58;;;;;;;16.70;6.15;;;;;;;;;;5074332;28;20470;-78
2022/10/30 10:18:32;;;;;;;18.55;6.63;;;;;;;;;;5072827;28;20037;-78
2022/10/30 10:21:00;;;;;;;21.30;6.47;;;;;;;;;;5056012;28;20024;-79
2022/10/30 10:23:46;;;;;;;19.95;6.88;;;;;;;;;;5056292;28;20090;-78
2022/10/30 10:26:20;;;;;;;14.27;6.63;;;;;;;;;;5074558;28;20032;-79
2022/10/30 10:29:17;;;;;;;18.25;6.55;;;;;;;;;;5074154;28;20021;-79
2022/10/30 10:31:48;;;;;;;21.83;6.53;;;;;;;;;;5068359;28;20043;-79
2022/10/30 10:34:34;;;;;;;22.42;7.10;;;;;;;;;;5074043;28;20025;-79
2022/10/30 10:37:03;;;;;;;19.55;7.20;;;;;;;;;;5072688;28;20055;-80
2022/10/30 10:39:38;;;;;;;16.92;6.90;;;;;;;;;;5056022;28;20111;-80
2022/10/30 10:42:39;;;;;;;18.65;7.05;;;;;;;;;;5074079;28;20039;-80
2022/10/30 10:45:38;;;;;;;25.15;7.20;;;;;;;;;;5039417;28;20575;-79
2022/10/30 10:48:06;;;;;;;18.27;6.80;;;;;;;;;;5072297;28;20493;-80
2022/10/30 10:50:56;;;;;;;15.85;6.70;;;;;;;;;;5072547;28;20036;-79
2022/10/30 10:53:30;;;;;;;21.05;7.25;;;;;;;;;;5034160;28;20103;-80
2022/10/30 10:55:57;;;;;;;16.77;6.82;;;;;;;;;;5055977;28;20032;-81
2022/10/30 10:58:23;;;;;;;18.98;6.47;;;;;;;;;;5071955;28;20054;-80
2022/10/30 11:00:48;;;;;;;14.20;6.30;;;;;;;;;;5073308;28;20099;-80
2022/10/30 11:03:19;;;;;;;16.67;6.90;;;;;;;;;;5075037;28;20121;-80
2022/10/30 11:05:51;;;;;;;17.58;7.07;;;;;;;;;;5077175;28;20032;-79
2022/10/30 11:08:29;;;;;;;13.85;6.40;;;;;;;;;;5075480;28;20070;-79
2022/10/30 11:11:05;;;;;;;11.60;6.57;;;;;;;;;;5077673;28;20029;-78
2022/10/30 11:13:38;;;;;;;15.20;6.65;;;;;;;;;;5076983;28;20391;-78
2022/10/30 11:16:08;;;;;;;15.32;6.40;;;;;;;;;;5076661;28;20025;-79
2022/10/30 11:18:34;;;;;;;12.95;6.22;;;;;;;;;;5076987;28;20031;-79
2022/10/30 11:21:07;;;;;;;10.45;5.50;;;;;;;;;;5076173;28;20040;-79
2022/10/30 11:23:42;;;;;;;15.38;6.80;;;;;;;;;;5076414;28;20024;-79
2022/10/30 11:26:17;;;;;;;33.70;9.20;;;;;;;;;;5075599;28;20032;-83
2022/10/30 11:28:51;;;;;;;19.33;8.15;;;;;;;;;;5076700;28;20032;-80
2022/10/30 11:31:33;;;;;;;25.95;7.57;;;;;;;;;;5075341;28;20032;-78
2022/10/30 11:34:23;;;;;;;18.95;7.80;;;;;;;;;;5077288;28;20048;-79
2022/10/30 11:36:51;;;;;;;21.88;7.10;;;;;;;;;;5069711;28;20495;-78
2022/10/30 11:39:18;;;;;;;15.38;7.05;;;;;;;;;;5078121;28;20035;-79
2022/10/30 11:42:04;;;;;;;17.35;7.28;;;;;;;;;;5077297;28;20386;-78
2022/10/30 11:44:35;;;;;;;16.63;6.68;;;;;;;;;;5074796;28;20465;-79
2022/10/30 11:47:01;;;;;;;13.15;6.53;;;;;;;;;;5077044;28;20383;-79
2022/10/30 11:49:50;;;;;;;14.98;6.68;;;;;;;;;;5077702;28;20085;-79
2022/10/30 11:52:17;;;;;;;12.95;6.68;;;;;;;;;;5078776;28;20026;-79
2022/10/30 11:54:47;;;;;;;18.10;6.80;;;;;;;;;;5077521;28;20032;-79
2022/10/30 11:57:21;;;;;;;15.68;6.03;;;;;;;;;;5077518;28;20067;-79
2022/10/30 11:59:47;;;;;;;14.48;5.43;;;;;;;;;;5075045;28;20103;-79
2022/10/30 12:02:29;;;;;;;15.57;6.43;;;;;;;;;;5076731;28;20052;-79
2022/10/30 12:05:00;;;;;;;15.98;6.55;;;;;;;;;;5059410;28;20060;-79
2022/10/30 12:07:30;;;;;;;17.67;7.22;;;;;;;;;;5059016;28;20484;-79
2022/10/30 12:09:58;;;;;;;13.50;6.15;;;;;;;;;;5074481;28;20025;-80
2022/10/30 12:12:27;;;;;;;15.57;6.35;;;;;;;;;;5058001;28;20475;-80
2022/10/30 12:14:52;;;;;;;12.10;5.80;;;;;;;;;;5073796;28;20028;-80
2022/10/30 12:17:19;;;;;;;11.45;6.00;;;;;;;;;;5074042;28;20047;-81
2022/10/30 12:19:54;;;;;;;11.38;5.30;;;;;;;;;;5057330;28;20062;-80
2022/10/30 12:22:30;;;;;;;16.52;6.13;;;;;;;;;;5057104;28;20020;-82
2022/10/30 12:24:57;;;;;;;17.05;6.45;;;;;;;;;;5074101;28;20024;-83
2022/10/30 12:27:23;;;;;;;11.40;5.70;;;;;;;;;;5075596;28;20062;-83
2022/10/30 12:30:09;;;;;;;15.52;5.88;;;;;;;;;;5057210;28;20123;-82
2022/10/30 12:32:43;;;;;;;11.50;5.43;;;;;;;;;;5063892;28;20177;-82
2022/10/30 12:35:36;;;;;;;14.18;5.95;;;;;;;;;;5074285;28;20020;-82
2022/10/30 12:38:04;;;;;;;12.82;6.07;;;;;;;;;;5074398;28;20063;-83
2022/10/30 12:40:30;;;;;;;13.20;5.63;;;;;;;;;;5058015;28;20048;-82
2022/10/30 12:43:17;;;;;;;15.20;6.50;;;;;;;;;;5057294;28;20500;-82
2022/10/30 12:45:46;;;;;;;14.68;5.80;;;;;;;;;;5056784;28;20486;-82
2022/10/30 12:48:14;;;;;;;17.50;6.13;;;;;;;;;;5073308;28;20031;-82
2022/10/30 12:51:00;;;;;;;11.90;5.82;;;;;;;;;;5075384;28;20044;-81
2022/10/30 12:53:45;;;;;;;13.68;5.38;;;;;;;;;;5078706;28;20026;-82
2022/10/30 12:56:16;;;;;;;11.48;5.60;;;;;;;;;;5079173;28;20429;-81
2022/10/30 12:59:24;;;;;;;14.82;5.57;;;;;;;;;;5060388;28;20024;-81
2022/10/30 13:02:10;;;;;;;18.02;6.15;;;;;;;;;;5066867;28;20032;-81
2022/10/30 13:04:38;;;;;;;12.85;5.70;;;;;;;;;;5082059;28;20108;-81
2022/10/30 13:07:04;;;;;;;13.68;5.55;;;;;;;;;;5075974;28;20036;-80
2022/10/30 13:09:29;;;;;;;11.85;5.50;;;;;;;;;;5074364;28;20025;-81
2022/10/30 13:12:02;;;;;;;16.35;5.80;;;;;;;;;;5072658;28;20116;-81
2022/10/30 13:14:36;;;;;;;9.70;5.07;;;;;;;;;;5056334;28;20016;-81
2022/10/30 13:17:01;;;;;;;10.38;5.30;;;;;;;;;;5074267;28;20052;-81
2022/10/30 13:19:27;;;;;;;12.63;5.53;;;;;;;;;;5072912;28;20079;-80
2022/10/30 13:21:59;;;;;;;12.65;5.72;;;;;;;;;;5072725;28;20024;-81
2022/10/30 13:24:56;;;;;;;10.75;5.80;;;;;;;;;;5072665;28;20024;-81
2022/10/30 13:27:27;;;;;;;13.25;5.30;;;;;;;;;;5073636;28;20035;-82
2022/10/30 13:30:02;;;;;;;12.68;5.22;;;;;;;;;;5072191;28;20064;-82
2022/10/30 13:32:59;;;;;;;12.43;5.82;;;;;;;;;;5072419;28;20025;-82
2022/10/30 13:35:42;;;;;;;12.10;5.45;;;;;;;;;;5073469;28;20032;-81
2022/10/30 13:38:10;;;;;;;15.80;5.23;;;;;;;;;;5072239;28;20544;-82
2022/10/30 13:40:43;;;;;;;14.20;5.55;;;;;;;;;;5073650;28;20028;-81
2022/10/30 13:43:33;;;;;;;11.57;5.53;;;;;;;;;;5055606;28;20048;-80
2022/10/30 13:46:06;;;;;;;8.73;5.18;;;;;;;;;;5073290;28;20499;-80
2022/10/30 13:48:46;;;;;;;12.43;5.35;;;;;;;;;;5072051;28;20399;-81
2022/10/30 13:51:24;;;;;;;12.02;5.13;;;;;;;;;;5073534;28;20028;-81
2022/10/30 13:54:07;;;;;;;8.98;4.85;;;;;;;;;;5073607;28;20024;-81
2022/10/30 13:56:33;;;;;;;9.73;5.10;;;;;;;;;;5073435;28;20027;-81
2022/10/30 13:59:04;;;;;;;15.88;5.20;;;;;;;;;;5055359;28;20273;-81
2022/10/30 14:01:41;;;;;;;10.38;5.45;;;;;;;;;;5073765;28;20035;-81
2022/10/30 14:04:16;;;;;;;10.18;5.22;;;;;;;;;;5073674;28;20052;-80
2022/10/30 14:07:06;;;;;;;11.82;4.90;;;;;;;;;;5074268;28;20024;-81
2022/10/30 14:09:43;;;;;;;10.82;5.20;;;;;;;;;;5072848;28;20035;-78
2022/10/30 14:12:49;;;;;;;11.98;5.53;;;;;;;;;;5073181;28;20029;-79
2022/10/30 14:15:26;;;;;;;10.02;5.60;;;;;;;;;;5072871;28;20082;-80
2022/10/30 14:18:10;;;;;;;10.75;4.85;;;;;;;;;;5056349;28;20024;-79
2022/10/30 14:20:39;;;;;;;13.10;5.10;;;;;;;;;;5074257;28;20032;-80
2022/10/30 14:23:31;;;;;;;8.75;4.82;;;;;;;;;;5072617;28;20032;-81
2022/10/30 14:26:03;;;;;;;13.55;5.68;;;;;;;;;;5073112;28;20021;-79
2022/10/30 14:28:29;;;;;;;12.30;5.32;;;;;;;;;;5072113;28;20028;-80
2022/10/30 14:31:05;;;;;;;17.52;5.05;;;;;;;;;;5055929;28;20032;-79
2022/10/30 14:33:45;;;;;;;13.63;5.38;;;;;;;;;;5073051;28;20031;-80
2022/10/30 14:36:18;;;;;;;15.25;5.40;;;;;;;;;;5073444;28;20430;-79
2022/10/30 14:39:08;;;;;;;8.45;5.03;;;;;;;;;;5077676;28;20031;-79
2022/10/30 14:41:51;;;;;;;9.32;5.43;;;;;;;;;;5075869;28;20029;-80
2022/10/30 14:44:44;;;;;;;18.02;5.68;;;;;;;;;;5059531;28;20460;-80
2022/10/30 14:47:39;;;;;;;10.57;4.85;;;;;;;;;;5077611;28;20048;-79
2022/10/30 14:50:22;;;;;;;9.63;5.60;;;;;;;;;;5077161;28;20032;-78
2022/10/30 14:52:47;;;;;;;9.68;5.38;;;;;;;;;;5076919;28;20032;-78
2022/10/30 14:55:34;;;;;;;11.07;5.40;;;;;;;;;;5077238;28;20025;-80